This is the latest recevied weather packets stored in our database for station/object VA7NEZ. If no packets are shown the sender has not sent any weather packets the latest 10 day(s).
| Time | Temp. | Humidity | Pressure | Rain* | Wind** | Luminosity | Snow |
|---|---|---|---|---|---|---|---|
| 1777820373 | 11.11° C | 62% | 1017.7 hPa | 0 mm | - | - | - |
| 1777819837 | 0° C | 100% | 1017.7 hPa | 0 mm | - | - | - |
| 1777815977 | 0° C | 100% | 1017.7 hPa | 0 mm | - | - | - |
| 1777815481 | 6.67° C | 72% | 1017.6 hPa | 0 mm | - | - | - |
| 1777814426 | 6.67° C | 74% | 1017.5 hPa | 0 mm | - | - | - |
| 1777813347 | 6.67° C | 77% | 1017.3 hPa | 0 mm | - | - | - |
| 1777809416 | 7.22° C | 70% | 1017.3 hPa | 0 mm | - | - | - |
| 1777808867 | 7.22° C | 72% | 1017.4 hPa | 0 mm | - | - | - |
| 1777807217 | 7.78° C | 70% | 1017.2 hPa | 0 mm | - | - | - |
| 1777804567 | 8.33° C | 71% | 1017.1 hPa | 0 mm | - | - | - |
| 1777804012 | 8.33° C | 65% | 1017.1 hPa | 0 mm | - | - | - |
| 1777802897 | 0° C | 100% | 1017.1 hPa | 0 mm | - | - | - |
| 1777801857 | 9.44° C | 64% | 1017 hPa | 0 mm | - | - | - |
| 1777801321 | 9.44° C | 63% | 1017.2 hPa | 0 mm | - | - | - |
| 1777800242 | 10° C | 64% | 1017.3 hPa | 0 mm | - | - | - |
| 1777799683 | 0° C | 100% | 1017.1 hPa | 0 mm | - | - | - |
| 1777799167 | 10° C | 61% | 1017.1 hPa | 0 mm | - | - | - |
| 1777798621 | 10° C | 63% | 1017 hPa | 0 mm | - | - | - |
| 1777796962 | 10.56° C | 60% | 1016.7 hPa | 0 mm | - | - | - |
| 1777796452 | 0° C | 100% | 1017.1 hPa | 0 mm | - | - | - |
| 1777795958 | 10.56° C | 60% | 1017 hPa | 0 mm | - | - | - |
| 1777795452 | 10.56° C | 60% | 1016.7 hPa | 0 mm | - | - | - |
| 1777794877 | 0° C | 100% | 1016.8 hPa | 0 mm | - | - | - |
| 1777794291 | 11.11° C | 58% | 1016.7 hPa | 0 mm | - | - | - |
| 1777793777 | 11.67° C | 58% | 1016.6 hPa | 0 mm | - | - | - |
* Rain latest hour (hover to see other rain measurements)
** Current wind speed in m/s (hover to see current wind gust speed)